createdAt,value
2023-01-12T00:02:27.270Z,1.03
2023-01-12T00:04:55.678Z,0.70
2023-01-12T00:07:23.983Z,0.90
2023-01-12T00:09:52.359Z,0.70
2023-01-12T00:12:20.701Z,0.83
2023-01-12T00:14:49.044Z,0.80
2023-01-12T00:17:19.745Z,1.00
2023-01-12T00:19:48.177Z,1.20
2023-01-12T00:22:18.668Z,1.17
2023-01-12T00:24:49.892Z,1.10
2023-01-12T00:27:20.335Z,0.90
2023-01-12T00:29:49.271Z,0.80
2023-01-12T00:32:21.368Z,0.83
2023-01-12T00:34:49.825Z,0.57
2023-01-12T00:37:20.722Z,0.70
2023-01-12T00:40:01.553Z,0.90
2023-01-12T00:42:48.225Z,1.00
2023-01-12T00:45:22.848Z,0.70
2023-01-12T00:47:53.534Z,0.70
2023-01-12T00:50:21.961Z,0.80
2023-01-12T00:52:50.301Z,0.60
2023-01-12T00:55:18.687Z,0.70
2023-01-12T00:57:47.052Z,0.83
2023-01-12T01:00:16.238Z,0.63
2023-01-12T01:02:44.631Z,0.60
2023-01-12T01:05:14.469Z,0.70
2023-01-12T01:07:42.814Z,0.80
2023-01-12T01:10:12.497Z,0.70
2023-01-12T01:12:40.942Z,1.10
2023-01-12T01:15:10.225Z,0.93
2023-01-12T01:17:38.603Z,0.90
2023-01-12T01:20:07.607Z,1.03
2023-01-12T01:22:37.375Z,1.03
2023-01-12T01:25:06.538Z,0.87
2023-01-12T01:27:34.898Z,0.90
2023-01-12T01:30:03.430Z,0.80
2023-01-12T01:32:31.916Z,0.90
2023-01-12T01:35:00.259Z,1.23
2023-01-12T01:37:29.845Z,0.87
2023-01-12T01:39:59.505Z,1.87
2023-01-12T01:42:30.697Z,1.90
2023-01-12T01:45:07.674Z,1.50
2023-01-12T01:47:40.542Z,1.63
2023-01-12T01:50:16.523Z,1.50
2023-01-12T01:52:48.211Z,1.50
2023-01-12T01:55:22.092Z,1.00
2023-01-12T01:57:56.274Z,0.60
2023-01-12T02:00:26.579Z,0.70
2023-01-12T02:02:56.050Z,0.50
2023-01-12T02:05:27.671Z,0.60
2023-01-12T02:08:01.549Z,0.67
2023-01-12T02:10:31.399Z,0.60
2023-01-12T02:13:17.783Z,0.67
2023-01-12T02:16:21.711Z,0.40
2023-01-12T02:19:09.039Z,0.60
2023-01-12T02:22:08.583Z,0.60
2023-01-12T02:24:58.060Z,1.00
2023-01-12T02:27:43.787Z,0.60
2023-01-12T02:30:48.416Z,0.80
2023-01-12T02:33:31.438Z,1.13
2023-01-12T02:36:07.808Z,1.10
2023-01-12T02:38:41.664Z,1.10
2023-01-12T02:41:40.533Z,0.90
2023-01-12T02:44:13.750Z,0.93
2023-01-12T02:46:47.283Z,0.83
2023-01-12T02:49:22.430Z,1.00
2023-01-12T02:51:55.334Z,0.63
2023-01-12T02:54:26.445Z,1.10
2023-01-12T02:56:57.591Z,1.03
2023-01-12T02:59:29.280Z,0.70
2023-01-12T03:02:02.585Z,1.20
2023-01-12T03:04:34.262Z,0.63
2023-01-12T03:07:33.260Z,0.70
2023-01-12T03:10:14.847Z,0.50
2023-01-12T03:12:44.956Z,0.63
2023-01-12T03:15:17.226Z,0.80
2023-01-12T03:17:51.688Z,0.67
2023-01-12T03:20:26.082Z,0.50
2023-01-12T03:22:59.209Z,0.40
2023-01-12T03:25:29.809Z,0.40
2023-01-12T03:28:01.433Z,0.30
2023-01-12T03:30:35.122Z,0.37
2023-01-12T03:33:04.076Z,0.67
2023-01-12T03:35:38.607Z,0.20
2023-01-12T03:38:17.492Z,0.50
2023-01-12T03:40:50.540Z,0.60
2023-01-12T03:43:24.352Z,0.53
2023-01-12T03:45:58.833Z,0.53
2023-01-12T03:48:32.575Z,0.40
2023-01-12T03:51:08.257Z,0.47
2023-01-12T03:53:37.452Z,0.47
2023-01-12T03:56:09.405Z,0.50
2023-01-12T03:58:38.840Z,0.57
2023-01-12T04:01:07.575Z,0.30
2023-01-12T04:03:36.169Z,0.67
2023-01-12T04:06:08.384Z,0.50
2023-01-12T04:08:37.139Z,0.30
2023-01-12T04:11:25.957Z,0.80
2023-01-12T04:13:53.363Z,0.70
2023-01-12T04:16:21.835Z,0.63
2023-01-12T04:18:50.157Z,0.50
2023-01-12T04:21:39.883Z,1.07
2023-01-12T04:24:08.529Z,0.60
2023-01-12T04:26:36.827Z,0.43
2023-01-12T04:29:05.418Z,0.77
2023-01-12T04:31:33.890Z,1.03
2023-01-12T04:34:02.424Z,1.70
2023-01-12T04:36:32.121Z,1.63
2023-01-12T04:39:00.937Z,1.13
2023-01-12T04:41:29.283Z,0.83
2023-01-12T04:43:58.629Z,0.80
2023-01-12T04:46:27.153Z,0.50
2023-01-12T04:48:55.518Z,0.67
2023-01-12T04:51:23.919Z,0.63
2023-01-12T04:53:53.695Z,0.97
2023-01-12T04:56:22.125Z,0.63
2023-01-12T04:58:50.457Z,0.40
2023-01-12T05:02:09.542Z,0.60
2023-01-12T05:04:38.005Z,0.30
2023-01-12T05:07:06.364Z,0.50
2023-01-12T05:09:53.317Z,0.83
2023-01-12T05:12:21.683Z,0.80
2023-01-12T05:14:50.718Z,0.87
2023-01-12T05:17:19.015Z,0.60
2023-01-12T05:19:48.752Z,0.60
2023-01-12T05:22:17.327Z,0.50
2023-01-12T05:24:47.059Z,0.50
2023-01-12T05:27:15.433Z,0.60
2023-01-12T05:29:43.749Z,0.50
2023-01-12T05:32:12.176Z,0.53
2023-01-12T05:34:40.534Z,0.70
2023-01-12T05:37:08.913Z,0.80
2023-01-12T05:39:37.257Z,0.60
2023-01-12T05:42:24.828Z,0.60
2023-01-12T05:44:53.203Z,0.30
2023-01-12T05:47:21.542Z,0.50
2023-01-12T05:49:49.928Z,0.40
2023-01-12T05:52:18.209Z,0.30
2023-01-12T05:54:46.641Z,0.80
2023-01-12T05:57:16.284Z,1.30
2023-01-12T05:59:44.706Z,1.07
2023-01-12T06:02:17.257Z,0.80
2023-01-12T06:04:45.734Z,0.70
2023-01-12T06:07:15.234Z,0.47
2023-01-12T06:09:43.937Z,0.77
2023-01-12T06:12:30.811Z,1.80
2023-01-12T06:15:00.659Z,2.40
2023-01-12T06:17:28.979Z,1.63
2023-01-12T06:19:57.290Z,2.33
2023-01-12T06:22:27.230Z,1.83
2023-01-12T06:24:55.540Z,1.67
2023-01-12T06:27:23.918Z,1.20
2023-01-12T06:29:52.402Z,1.50
2023-01-12T06:32:22.144Z,4.00
2023-01-12T06:34:50.431Z,5.30
2023-01-12T06:37:18.767Z,6.40
2023-01-12T06:39:47.114Z,2.67
2023-01-12T06:42:31.873Z,2.10
2023-01-12T06:45:03.870Z,1.30
2023-01-12T06:47:33.795Z,1.83
2023-01-12T06:50:02.214Z,4.60
2023-01-12T06:52:39.693Z,2.93
2023-01-12T06:55:09.564Z,2.20
2023-01-12T06:57:37.907Z,1.93
2023-01-12T07:00:07.879Z,1.73
2023-01-12T07:02:37.573Z,2.77
2023-01-12T07:05:10.611Z,3.00
2023-01-12T07:07:40.396Z,2.13
2023-01-12T07:10:09.780Z,2.50
2023-01-12T07:12:38.127Z,2.77
2023-01-12T07:15:07.323Z,2.77
2023-01-12T07:17:37.159Z,3.30
2023-01-12T07:20:06.208Z,3.43
2023-01-12T07:22:34.657Z,3.97
2023-01-12T07:25:02.975Z,3.10
2023-01-12T07:27:31.367Z,3.97
2023-01-12T07:29:59.677Z,3.37
2023-01-12T07:32:29.976Z,3.80
2023-01-12T07:34:59.867Z,3.67
2023-01-12T07:37:28.263Z,4.80
2023-01-12T07:39:58.958Z,3.97
2023-01-12T07:42:27.573Z,2.77
2023-01-12T07:44:55.917Z,3.60
2023-01-12T07:47:24.287Z,2.60
2023-01-12T07:49:52.638Z,2.77
2023-01-12T07:52:22.379Z,2.30
2023-01-12T07:54:50.770Z,2.43
2023-01-12T07:57:19.061Z,1.97
2023-01-12T07:59:47.387Z,1.93
2023-01-12T08:02:17.118Z,1.30
2023-01-12T08:04:46.083Z,1.63
2023-01-12T08:07:15.259Z,1.77
2023-01-12T08:09:44.996Z,3.00
2023-01-12T08:12:14.608Z,7.80
2023-01-12T08:14:43.361Z,6.27
2023-01-12T08:17:16.963Z,3.50
2023-01-12T08:19:49.560Z,5.17
2023-01-12T08:22:23.312Z,5.70
2023-01-12T08:24:57.592Z,2.47
2023-01-12T08:27:30.446Z,2.40
2023-01-12T08:30:00.130Z,3.90
2023-01-12T08:32:30.231Z,2.77
2023-01-12T08:35:01.870Z,3.80
2023-01-12T08:37:32.054Z,3.70
2023-01-12T08:40:02.279Z,4.20
2023-01-12T08:42:31.960Z,4.50
2023-01-12T08:45:00.467Z,5.00
2023-01-12T08:47:30.761Z,5.23
2023-01-12T08:50:00.636Z,4.67
2023-01-12T08:52:32.655Z,3.93
2023-01-12T08:55:02.455Z,2.73
2023-01-12T08:57:30.825Z,2.10
2023-01-12T08:59:59.206Z,1.60
2023-01-12T09:02:27.986Z,1.70
2023-01-12T09:04:56.323Z,2.60
2023-01-12T09:07:24.587Z,2.40
2023-01-12T09:09:53.937Z,11.27
2023-01-12T09:12:24.545Z,12.13
2023-01-12T09:14:54.192Z,10.87
2023-01-12T09:17:24.219Z,11.27
2023-01-12T09:19:52.507Z,11.23
2023-01-12T09:22:20.945Z,9.67
2023-01-12T09:24:49.347Z,8.93
2023-01-12T09:27:18.624Z,10.40
2023-01-12T09:29:48.406Z,9.63
2023-01-12T09:32:18.549Z,7.83
2023-01-12T09:34:55.054Z,6.20
2023-01-12T09:37:23.385Z,5.50
2023-01-12T09:39:51.753Z,3.30
2023-01-12T09:42:40.837Z,3.67
2023-01-12T09:45:37.661Z,3.30
2023-01-12T09:48:08.008Z,6.40
2023-01-12T09:50:38.261Z,6.97
2023-01-12T09:53:13.097Z,8.73
2023-01-12T09:55:48.816Z,7.90
2023-01-12T09:58:27.719Z,9.43
2023-01-12T10:00:59.620Z,10.77
2023-01-12T10:03:32.251Z,11.97
2023-01-12T10:06:01.802Z,10.40
2023-01-12T10:08:34.069Z,6.53
2023-01-12T10:11:13.098Z,11.63
2023-01-12T10:14:12.347Z,8.77
2023-01-12T10:16:52.438Z,10.27
2023-01-12T10:19:27.116Z,5.77
2023-01-12T10:21:55.820Z,9.87
2023-01-12T10:24:25.921Z,4.87
2023-01-12T10:27:01.457Z,3.60
2023-01-12T10:29:31.868Z,4.37
2023-01-12T10:32:01.634Z,2.50
2023-01-12T10:34:48.987Z,1.90
2023-01-12T10:37:17.650Z,1.10
2023-01-12T10:39:46.347Z,1.07
2023-01-12T10:42:39.396Z,0.60
2023-01-12T10:45:16.220Z,1.93
2023-01-12T10:47:47.221Z,0.97
2023-01-12T10:50:28.062Z,1.20
2023-01-12T10:53:00.795Z,0.60
2023-01-12T10:55:33.515Z,0.60
2023-01-12T10:58:02.954Z,1.00
2023-01-12T11:00:31.785Z,1.63
2023-01-12T11:03:01.911Z,1.33
2023-01-12T11:05:36.840Z,2.90
2023-01-12T11:08:05.656Z,3.43
2023-01-12T11:10:37.533Z,2.57
2023-01-12T11:13:09.104Z,2.90
2023-01-12T11:15:40.142Z,2.37
2023-01-12T11:18:32.178Z,2.17
2023-01-12T11:21:04.365Z,1.50
2023-01-12T11:23:38.011Z,0.60
2023-01-12T11:26:17.021Z,0.60
2023-01-12T11:28:49.228Z,0.60
2023-01-12T11:31:24.049Z,0.50
2023-01-12T11:33:59.760Z,0.83
2023-01-12T11:36:31.450Z,0.50
2023-01-12T11:39:05.879Z,0.67
2023-01-12T11:41:39.360Z,0.60
2023-01-12T11:44:16.040Z,0.70
2023-01-12T11:46:48.235Z,0.70
2023-01-12T11:49:24.289Z,0.67
2023-01-12T11:51:57.058Z,0.70
2023-01-12T11:54:27.217Z,0.90
2023-01-12T11:57:18.698Z,1.43
2023-01-12T11:59:57.130Z,2.33
2023-01-12T12:02:37.191Z,2.30
2023-01-12T12:05:29.871Z,2.67
2023-01-12T12:08:14.385Z,1.37
2023-01-12T12:10:49.137Z,1.60
2023-01-12T12:13:48.981Z,1.00
2023-01-12T12:16:28.757Z,1.33
2023-01-12T12:19:20.195Z,1.33
2023-01-12T12:21:52.162Z,1.60
2023-01-12T12:24:32.524Z,2.00
2023-01-12T12:27:13.114Z,1.47
2023-01-12T12:30:04.411Z,1.17
2023-01-12T12:32:41.462Z,1.50
2023-01-12T12:35:41.514Z,1.63
2023-01-12T12:38:26.439Z,1.30
2023-01-12T12:41:29.396Z,0.73
2023-01-12T12:44:28.534Z,0.80
2023-01-12T12:47:07.215Z,0.67
2023-01-12T12:49:38.608Z,0.40
2023-01-12T12:52:09.121Z,0.43
2023-01-12T12:54:39.209Z,0.70
2023-01-12T12:57:07.578Z,1.07
2023-01-12T12:59:57.160Z,0.43
2023-01-12T13:02:38.877Z,0.50
2023-01-12T13:05:09.749Z,0.50
2023-01-12T13:07:45.459Z,0.60
2023-01-12T13:10:33.377Z,0.30
2023-01-12T13:13:24.496Z,0.50
2023-01-12T13:16:45.752Z,0.60
2023-01-12T13:19:37.765Z,0.90
2023-01-12T13:22:29.512Z,0.53
2023-01-12T13:25:02.533Z,0.70
2023-01-12T13:27:54.266Z,1.03
2023-01-12T13:30:26.235Z,0.90
2023-01-12T13:33:01.969Z,1.00
2023-01-12T13:36:11.501Z,0.90
2023-01-12T13:39:04.968Z,0.90
2023-01-12T13:41:53.603Z,0.57
2023-01-12T13:44:27.078Z,0.60
2023-01-12T13:47:04.459Z,0.60
2023-01-12T13:49:34.373Z,0.60
2023-01-12T13:52:06.594Z,0.60
2023-01-12T13:54:36.150Z,1.03
2023-01-12T13:57:10.814Z,0.70
2023-01-12T13:59:39.118Z,0.60
2023-01-12T14:02:19.494Z,0.63
2023-01-12T14:05:07.640Z,0.70
2023-01-12T14:07:55.243Z,2.17
2023-01-12T14:10:37.417Z,0.83
2023-01-12T14:13:27.179Z,0.60
2023-01-12T14:16:19.599Z,1.00
2023-01-12T14:18:50.824Z,0.83
2023-01-12T14:21:24.736Z,1.53
2023-01-12T14:23:55.480Z,2.17
2023-01-12T14:26:27.301Z,1.00
2023-01-12T14:28:55.725Z,0.80
2023-01-12T14:31:28.480Z,0.90
2023-01-12T14:33:59.564Z,0.93
2023-01-12T14:36:30.603Z,0.80
2023-01-12T14:39:01.608Z,0.70
2023-01-12T14:41:48.896Z,0.50
2023-01-12T14:44:37.896Z,0.87
2023-01-12T14:47:06.985Z,0.50
2023-01-12T14:49:37.721Z,0.50
2023-01-12T14:52:27.681Z,1.00
2023-01-12T14:55:14.662Z,0.50
2023-01-12T14:57:43.951Z,1.00
2023-01-12T15:00:22.313Z,0.80
2023-01-12T15:02:52.466Z,0.80
2023-01-12T15:05:25.572Z,0.60
2023-01-12T15:07:56.466Z,0.77
2023-01-12T15:10:32.297Z,0.80
2023-01-12T15:13:19.985Z,0.90
2023-01-12T15:16:06.235Z,0.70
2023-01-12T15:18:53.979Z,0.60
2023-01-12T15:21:40.208Z,0.70
2023-01-12T15:24:39.274Z,0.90
2023-01-12T15:27:09.975Z,1.10
2023-01-12T15:29:38.628Z,1.20
2023-01-12T15:32:15.363Z,0.90
2023-01-12T15:34:44.002Z,1.47
2023-01-12T15:37:16.253Z,2.53
2023-01-12T15:39:44.588Z,1.07
2023-01-12T15:42:17.871Z,1.33
2023-01-12T15:44:47.233Z,1.93
2023-01-12T15:47:17.681Z,1.10
2023-01-12T15:49:48.923Z,1.30
2023-01-12T15:52:20.128Z,1.43
2023-01-12T15:54:48.601Z,1.40
2023-01-12T15:57:19.080Z,1.20
2023-01-12T15:59:47.513Z,1.40
2023-01-12T16:02:31.419Z,1.60
2023-01-12T16:05:00.077Z,1.43
2023-01-12T16:07:28.509Z,3.07
2023-01-12T16:09:57.931Z,1.67
2023-01-12T16:12:27.687Z,1.90
2023-01-12T16:14:56.707Z,1.57
2023-01-12T16:17:25.190Z,1.30
2023-01-12T16:19:53.529Z,1.20
2023-01-12T16:22:25.241Z,1.10
2023-01-12T16:24:55.389Z,1.13
2023-01-12T16:27:25.199Z,1.30
2023-01-12T16:29:55.142Z,0.90
2023-01-12T16:32:25.190Z,1.00
2023-01-12T16:34:54.258Z,1.00
2023-01-12T16:37:27.458Z,0.67
2023-01-12T16:39:56.193Z,0.90
2023-01-12T16:42:24.581Z,0.80
2023-01-12T16:44:54.553Z,0.90
2023-01-12T16:47:24.522Z,1.10
2023-01-12T16:49:53.269Z,1.33
2023-01-12T16:52:23.228Z,1.13
2023-01-12T16:54:51.582Z,1.90
2023-01-12T16:57:20.281Z,1.10
2023-01-12T16:59:50.851Z,1.50
2023-01-12T17:02:21.508Z,2.00
2023-01-12T17:04:52.461Z,2.17
2023-01-12T17:07:20.993Z,1.90
2023-01-12T17:09:49.467Z,2.47
2023-01-12T17:12:17.982Z,2.30
2023-01-12T17:14:46.659Z,2.40
2023-01-12T17:17:15.333Z,2.40
2023-01-12T17:19:46.477Z,2.03
2023-01-12T17:22:15.115Z,2.10
2023-01-12T17:24:43.496Z,2.33
2023-01-12T17:27:12.438Z,3.43
2023-01-12T17:29:40.820Z,2.70
2023-01-12T17:32:09.794Z,3.07
2023-01-12T17:34:40.347Z,4.80
2023-01-12T17:37:11.424Z,1.70
2023-01-12T17:39:43.051Z,1.43
2023-01-12T17:42:30.437Z,1.90
2023-01-12T17:44:59.202Z,1.20
2023-01-12T17:47:27.594Z,1.63
2023-01-12T17:49:56.137Z,1.20
2023-01-12T17:52:26.299Z,1.73
2023-01-12T17:54:54.762Z,4.70
2023-01-12T17:57:23.219Z,5.60
2023-01-12T17:59:51.990Z,4.70
2023-01-12T18:02:20.346Z,2.93
2023-01-12T18:04:48.781Z,2.03
2023-01-12T18:07:17.037Z,1.60
2023-01-12T18:09:46.783Z,2.07
2023-01-12T18:12:16.514Z,2.00
2023-01-12T18:14:44.992Z,1.23
2023-01-12T18:17:13.568Z,1.13
2023-01-12T18:19:42.584Z,1.07
2023-01-12T18:22:11.279Z,1.50
2023-01-12T18:24:39.643Z,6.93
2023-01-12T18:27:09.735Z,2.50
2023-01-12T18:29:38.256Z,2.33
2023-01-12T18:32:11.713Z,1.70
2023-01-12T18:34:40.451Z,1.87
2023-01-12T18:37:08.713Z,1.70
2023-01-12T18:39:37.129Z,1.57
2023-01-12T18:42:23.398Z,1.37
2023-01-12T18:44:53.204Z,1.60
2023-01-12T18:47:39.112Z,2.07
2023-01-12T18:50:29.020Z,2.80
2023-01-12T18:53:16.556Z,4.80
2023-01-12T18:55:45.093Z,4.63
2023-01-12T18:58:13.396Z,4.23
2023-01-12T19:00:43.099Z,2.40
2023-01-12T19:03:12.124Z,1.97
2023-01-12T19:05:52.419Z,1.77
2023-01-12T19:08:49.621Z,2.03
2023-01-12T19:11:18.117Z,2.10
2023-01-12T19:14:03.943Z,2.10
2023-01-12T19:16:51.040Z,3.00
2023-01-12T19:19:23.152Z,1.90
2023-01-12T19:22:08.987Z,2.33
2023-01-12T19:24:54.818Z,1.80
2023-01-12T19:27:40.833Z,2.40
2023-01-12T19:30:10.543Z,2.30
2023-01-12T19:32:40.505Z,3.47
2023-01-12T19:35:11.619Z,3.43
2023-01-12T19:37:42.635Z,2.93
2023-01-12T19:40:18.456Z,4.20
2023-01-12T19:43:04.371Z,4.17
2023-01-12T19:45:32.768Z,6.23
2023-01-12T19:48:03.719Z,7.43
2023-01-12T19:50:32.087Z,9.20
2023-01-12T19:53:00.472Z,8.20
2023-01-12T19:55:28.947Z,8.50
2023-01-12T19:57:58.405Z,9.43
2023-01-12T20:00:27.869Z,8.37
2023-01-12T20:02:57.103Z,8.37
2023-01-12T20:05:26.869Z,7.67
2023-01-12T20:07:55.535Z,7.10
2023-01-12T20:10:24.285Z,7.70
2023-01-12T20:12:52.667Z,6.67
2023-01-12T20:15:21.920Z,7.03
2023-01-12T20:17:51.112Z,6.53
2023-01-12T20:20:19.906Z,6.47
2023-01-12T20:22:51.850Z,6.40
2023-01-12T20:25:20.918Z,7.37
2023-01-12T20:27:50.300Z,7.63
2023-01-12T20:30:32.043Z,6.70
2023-01-12T20:33:05.011Z,7.90
2023-01-12T20:35:33.375Z,11.43
2023-01-12T20:38:06.798Z,6.13
2023-01-12T20:40:35.338Z,5.60
2023-01-12T20:43:03.680Z,7.00
2023-01-12T20:45:32.087Z,6.63
2023-01-12T20:48:00.390Z,6.03
2023-01-12T20:50:28.850Z,5.17
2023-01-12T20:52:57.161Z,5.23
2023-01-12T20:55:26.963Z,5.63
2023-01-12T20:57:55.384Z,5.97
2023-01-12T21:00:23.731Z,5.97
2023-01-12T21:02:52.060Z,6.90
2023-01-12T21:05:20.735Z,7.60
2023-01-12T21:07:52.054Z,7.57
2023-01-12T21:10:22.556Z,8.17
2023-01-12T21:12:52.317Z,7.27
2023-01-12T21:15:21.074Z,6.27
2023-01-12T21:17:49.428Z,6.87
2023-01-12T21:20:18.233Z,7.80
2023-01-12T21:22:46.565Z,8.00
2023-01-12T21:25:15.049Z,8.80
2023-01-12T21:27:43.392Z,9.30
2023-01-12T21:30:13.742Z,8.77
2023-01-12T21:32:43.590Z,8.37
2023-01-12T21:35:12.018Z,8.27
2023-01-12T21:37:41.461Z,7.57
2023-01-12T21:40:11.263Z,8.93
2023-01-12T21:42:57.377Z,7.20
2023-01-12T21:45:27.191Z,9.13
2023-01-12T21:47:56.082Z,8.97
2023-01-12T21:50:24.703Z,8.87
2023-01-12T21:52:53.034Z,7.73
2023-01-12T21:55:21.389Z,7.90
2023-01-12T21:57:49.802Z,7.40
2023-01-12T22:00:19.715Z,7.50
2023-01-12T22:02:51.217Z,7.77
2023-01-12T22:05:21.515Z,7.07
2023-01-12T22:07:50.263Z,7.87
2023-01-12T22:10:30.232Z,8.13
2023-01-12T22:13:00.956Z,7.77
2023-01-12T22:15:31.079Z,7.03
2023-01-12T22:18:01.372Z,9.57
2023-01-12T22:20:29.955Z,8.97
2023-01-12T22:22:58.301Z,8.50
2023-01-12T22:25:27.438Z,9.37
2023-01-12T22:27:57.343Z,9.10
2023-01-12T22:30:26.302Z,7.90
2023-01-12T22:32:56.128Z,7.80
2023-01-12T22:35:26.223Z,7.87
2023-01-12T22:37:55.929Z,8.23
2023-01-12T22:40:24.292Z,6.43
2023-01-12T22:43:10.212Z,6.67
2023-01-12T22:45:38.553Z,9.60
2023-01-12T22:48:07.437Z,10.50
2023-01-12T22:50:38.030Z,9.53
2023-01-12T22:53:06.440Z,9.77
2023-01-12T22:55:34.694Z,8.47
2023-01-12T22:58:03.165Z,8.20
2023-01-12T23:00:31.473Z,9.77
2023-01-12T23:03:03.175Z,9.43
2023-01-12T23:05:35.309Z,13.97
2023-01-12T23:08:06.707Z,10.40
2023-01-12T23:10:35.386Z,7.83
2023-01-12T23:13:15.763Z,7.13
2023-01-12T23:15:47.722Z,8.93
2023-01-12T23:18:18.673Z,7.53
2023-01-12T23:20:47.135Z,6.40
2023-01-12T23:23:18.800Z,5.87
2023-01-12T23:25:47.805Z,5.43
2023-01-12T23:28:17.032Z,6.37
2023-01-12T23:30:46.080Z,7.87
2023-01-12T23:33:14.319Z,7.70
2023-01-12T23:35:43.809Z,9.37
2023-01-12T23:38:17.342Z,7.30
2023-01-12T23:40:45.724Z,7.17
2023-01-12T23:43:14.062Z,6.80
2023-01-12T23:45:42.482Z,6.50
2023-01-12T23:48:10.811Z,5.97
2023-01-12T23:50:39.199Z,6.03
2023-01-12T23:53:07.460Z,5.10
2023-01-12T23:55:39.275Z,5.03
2023-01-12T23:58:08.260Z,8.20
